createdAt,value
2022-11-15T00:01:18.951Z,36.20
2022-11-15T00:03:47.007Z,34.50
2022-11-15T00:06:14.804Z,34.90
2022-11-15T00:08:42.418Z,38.60
2022-11-15T00:11:12.299Z,37.60
2022-11-15T00:13:40.978Z,40.20
2022-11-15T00:16:11.362Z,35.40
2022-11-15T00:18:39.708Z,37.70
2022-11-15T00:21:13.334Z,38.30
2022-11-15T00:23:41.329Z,38.60
2022-11-15T00:26:13.831Z,38.10
2022-11-15T00:28:42.466Z,41.30
2022-11-15T00:31:13.629Z,38.60
2022-11-15T00:33:44.482Z,34.60
2022-11-15T00:36:12.948Z,34.30
2022-11-15T00:38:41.604Z,38.70
2022-11-15T00:41:10.387Z,39.60
2022-11-15T00:43:40.884Z,35.80
2022-11-15T00:46:10.562Z,36.50
2022-11-15T00:48:38.268Z,36.60
2022-11-15T00:51:06.089Z,36.70
2022-11-15T00:53:34.195Z,36.80
2022-11-15T00:56:02.248Z,34.90
2022-11-15T00:58:29.979Z,37.00
2022-11-15T01:00:57.685Z,34.80
2022-11-15T01:03:25.373Z,39.30
2022-11-15T01:05:53.039Z,34.70
2022-11-15T01:08:20.722Z,36.80
2022-11-15T01:10:48.586Z,38.00
2022-11-15T01:13:16.388Z,39.10
2022-11-15T01:15:44.250Z,38.20
2022-11-15T01:18:12.013Z,39.90
2022-11-15T01:20:43.744Z,38.60
2022-11-15T01:23:11.818Z,36.80
2022-11-15T01:25:39.554Z,35.60
2022-11-15T01:28:07.596Z,34.40
2022-11-15T01:30:37.851Z,36.60
2022-11-15T01:33:05.573Z,37.70
2022-11-15T01:35:33.273Z,36.30
2022-11-15T01:38:00.935Z,39.40
2022-11-15T01:40:28.657Z,37.00
2022-11-15T01:42:56.348Z,37.30
2022-11-15T01:45:23.996Z,38.80
2022-11-15T01:47:55.376Z,45.90
2022-11-15T01:50:33.987Z,40.30
2022-11-15T01:53:01.929Z,42.30
2022-11-15T01:55:29.853Z,41.80
2022-11-15T01:58:02.961Z,42.20
2022-11-15T02:00:31.894Z,41.10
2022-11-15T02:02:59.780Z,42.60
2022-11-15T02:05:28.159Z,39.20
2022-11-15T02:07:56.283Z,42.20
2022-11-15T02:10:25.690Z,41.70
2022-11-15T02:12:55.351Z,36.60
2022-11-15T02:15:31.528Z,41.90
2022-11-15T02:18:31.101Z,40.70
2022-11-15T02:21:28.101Z,40.70
2022-11-15T02:24:35.147Z,41.50
2022-11-15T02:27:18.780Z,42.70
2022-11-15T02:30:18.358Z,39.90
2022-11-15T02:32:53.223Z,41.90
2022-11-15T02:35:39.110Z,42.90
2022-11-15T02:38:18.616Z,42.60
2022-11-15T02:40:49.246Z,43.60
2022-11-15T02:43:41.393Z,45.50
2022-11-15T02:46:18.889Z,45.10
2022-11-15T02:48:46.741Z,47.00
2022-11-15T02:51:15.797Z,41.10
2022-11-15T02:53:43.543Z,45.10
2022-11-15T02:56:13.282Z,46.60
2022-11-15T02:58:44.019Z,49.10
2022-11-15T03:01:26.245Z,45.10
2022-11-15T03:04:20.552Z,49.20
2022-11-15T03:06:48.219Z,54.70
2022-11-15T03:09:25.925Z,50.90
2022-11-15T03:12:02.160Z,45.20
2022-11-15T03:14:44.045Z,48.50
2022-11-15T03:17:36.363Z,49.20
2022-11-15T03:20:07.304Z,48.60
2022-11-15T03:22:40.113Z,48.40
2022-11-15T03:25:11.460Z,48.00
2022-11-15T03:27:43.110Z,50.10
2022-11-15T03:30:12.328Z,50.70
2022-11-15T03:32:54.079Z,49.50
2022-11-15T03:35:25.037Z,49.70
2022-11-15T03:38:02.117Z,50.10
2022-11-15T03:40:52.499Z,47.70
2022-11-15T03:43:54.697Z,50.20
2022-11-15T03:46:41.832Z,52.40
2022-11-15T03:49:38.369Z,54.60
2022-11-15T03:52:07.332Z,50.50
2022-11-15T03:54:34.998Z,48.30
2022-11-15T03:57:02.697Z,52.10
2022-11-15T03:59:30.347Z,52.30
2022-11-15T04:01:58.055Z,57.50
2022-11-15T04:04:25.904Z,57.30
2022-11-15T04:06:53.614Z,58.20
2022-11-15T04:09:21.408Z,47.20
2022-11-15T04:11:49.073Z,48.20
2022-11-15T04:14:16.806Z,55.20
2022-11-15T04:16:44.438Z,54.10
2022-11-15T04:19:28.034Z,54.30
2022-11-15T04:22:11.669Z,52.10
2022-11-15T04:24:39.420Z,50.70
2022-11-15T04:27:07.059Z,47.30
2022-11-15T04:29:37.559Z,50.60
2022-11-15T04:32:07.657Z,50.90
2022-11-15T04:34:36.111Z,54.80
2022-11-15T04:37:19.755Z,54.00
2022-11-15T04:39:47.543Z,58.30
2022-11-15T04:42:15.182Z,51.70
2022-11-15T04:44:42.869Z,54.10
2022-11-15T04:47:10.464Z,64.60
2022-11-15T04:49:38.056Z,58.40
2022-11-15T04:52:05.648Z,66.00
2022-11-15T04:54:33.292Z,58.60
2022-11-15T04:57:01.002Z,61.70
2022-11-15T04:59:28.623Z,55.00
2022-11-15T05:01:56.236Z,56.50
2022-11-15T05:04:23.875Z,54.00
2022-11-15T05:06:52.586Z,53.30
2022-11-15T05:09:21.494Z,60.10
2022-11-15T05:11:49.165Z,54.90
2022-11-15T05:14:17.264Z,55.30
2022-11-15T05:16:44.937Z,49.80
2022-11-15T05:19:12.567Z,45.90
2022-11-15T05:21:40.463Z,46.90
2022-11-15T05:24:13.063Z,55.20
2022-11-15T05:26:40.638Z,60.40
2022-11-15T05:29:11.665Z,49.70
2022-11-15T05:31:42.726Z,48.90
2022-11-15T05:34:10.712Z,53.30
2022-11-15T05:36:43.168Z,55.20
2022-11-15T05:39:10.786Z,50.30
2022-11-15T05:41:40.715Z,52.20
2022-11-15T05:44:11.481Z,55.50
2022-11-15T05:46:42.277Z,48.70
2022-11-15T05:49:13.682Z,58.30
2022-11-15T05:51:43.130Z,48.80
2022-11-15T05:54:12.335Z,78.40
2022-11-15T05:56:40.279Z,66.00
2022-11-15T05:59:10.639Z,73.80
2022-11-15T06:01:40.417Z,75.10
2022-11-15T06:04:08.102Z,88.40
2022-11-15T06:06:35.751Z,61.70
2022-11-15T06:09:03.459Z,55.50
2022-11-15T06:11:31.192Z,53.20
2022-11-15T06:13:58.794Z,84.40
2022-11-15T06:16:26.406Z,64.40
2022-11-15T06:18:53.993Z,63.80
2022-11-15T06:21:21.774Z,83.30
2022-11-15T06:23:49.367Z,112.10
2022-11-15T06:26:16.954Z,65.10
2022-11-15T06:28:44.518Z,88.40
2022-11-15T06:31:12.503Z,54.80
2022-11-15T06:33:41.075Z,49.60
2022-11-15T06:36:17.490Z,42.80
2022-11-15T06:38:48.817Z,48.60
2022-11-15T06:41:17.866Z,42.10
2022-11-15T06:43:45.489Z,42.10
2022-11-15T06:46:15.670Z,48.10
2022-11-15T06:48:44.828Z,47.00
2022-11-15T06:51:12.656Z,42.90
2022-11-15T06:53:42.930Z,48.00
2022-11-15T06:56:19.934Z,44.70
2022-11-15T06:58:47.688Z,53.50
2022-11-15T07:01:18.476Z,42.90
2022-11-15T07:03:47.193Z,84.10
2022-11-15T07:06:18.989Z,53.00
2022-11-15T07:08:46.623Z,41.20
2022-11-15T07:11:14.643Z,37.10
2022-11-15T07:13:44.556Z,40.80
2022-11-15T07:16:12.373Z,46.50
2022-11-15T07:18:41.345Z,41.20
2022-11-15T07:21:11.829Z,41.30
2022-11-15T07:23:40.948Z,38.00
2022-11-15T07:26:10.231Z,38.70
2022-11-15T07:28:38.215Z,40.10
2022-11-15T07:31:08.508Z,39.20
2022-11-15T07:33:36.885Z,43.10
2022-11-15T07:36:06.218Z,45.80
2022-11-15T07:38:41.226Z,40.50
2022-11-15T07:41:10.601Z,45.50
2022-11-15T07:43:39.128Z,64.90
2022-11-15T07:46:10.298Z,41.20
2022-11-15T07:48:45.267Z,56.00
2022-11-15T07:51:15.629Z,54.30
2022-11-15T07:53:44.786Z,40.90
2022-11-15T07:56:13.332Z,50.50
2022-11-15T07:58:41.328Z,57.00
2022-11-15T08:01:12.583Z,78.20
2022-11-15T08:03:40.422Z,63.00
2022-11-15T08:06:08.081Z,45.50
2022-11-15T08:08:35.984Z,45.50
2022-11-15T08:11:09.750Z,57.60
2022-11-15T08:13:38.503Z,70.50
2022-11-15T08:16:06.656Z,70.90
2022-11-15T08:18:34.489Z,113.50
2022-11-15T08:21:03.138Z,78.00
2022-11-15T08:23:32.141Z,57.50
2022-11-15T08:26:04.309Z,45.30
2022-11-15T08:28:33.453Z,48.80
2022-11-15T08:31:01.228Z,64.00
2022-11-15T08:33:30.101Z,55.40
2022-11-15T08:36:00.243Z,55.60
2022-11-15T08:38:30.544Z,59.40
2022-11-15T08:41:04.977Z,51.40
2022-11-15T08:43:34.536Z,73.90
2022-11-15T08:46:09.243Z,139.30
2022-11-15T08:48:37.100Z,56.00
2022-11-15T08:51:07.469Z,43.80
2022-11-15T08:53:35.648Z,57.00
2022-11-15T08:56:04.096Z,93.40
2022-11-15T08:58:32.205Z,47.40
2022-11-15T09:01:00.146Z,40.60
2022-11-15T09:03:27.830Z,42.20
2022-11-15T09:06:00.835Z,41.40
2022-11-15T09:08:46.924Z,44.70
2022-11-15T09:11:17.445Z,63.60
2022-11-15T09:13:48.053Z,40.10
2022-11-15T09:16:16.346Z,52.70
2022-11-15T09:18:44.238Z,46.20
2022-11-15T09:21:12.257Z,90.40
2022-11-15T09:23:39.858Z,74.40
2022-11-15T09:26:07.924Z,64.70
2022-11-15T09:28:37.299Z,92.00
2022-11-15T09:31:07.099Z,81.20
2022-11-15T09:33:44.981Z,68.20
2022-11-15T09:36:13.090Z,55.50
2022-11-15T09:38:40.676Z,62.20
2022-11-15T09:41:14.626Z,94.60
2022-11-15T09:44:21.128Z,69.40
2022-11-15T09:47:23.192Z,137.20
2022-11-15T09:49:57.948Z,89.90
2022-11-15T09:52:32.532Z,63.70
2022-11-15T10:06:03.807Z,70.40
2022-11-15T10:08:35.680Z,67.40
2022-11-15T10:14:24.856Z,55.80
2022-11-15T10:17:14.353Z,70.90
2022-11-15T10:20:05.269Z,50.60
2022-11-15T10:22:41.487Z,65.40
2022-11-15T10:25:09.050Z,61.10
2022-11-15T10:27:37.017Z,62.00
2022-11-15T10:30:11.167Z,52.40
2022-11-15T10:32:40.237Z,71.40
2022-11-15T10:35:28.864Z,57.80
2022-11-15T10:38:13.017Z,47.70
2022-11-15T10:40:42.446Z,51.00
2022-11-15T10:43:10.327Z,51.80
2022-11-15T10:45:48.343Z,48.90
2022-11-15T10:48:22.508Z,52.50
2022-11-15T10:50:52.763Z,69.50
2022-11-15T10:53:45.077Z,51.40
2022-11-15T10:56:18.555Z,49.90
2022-11-15T10:58:54.407Z,55.50
2022-11-15T11:01:27.806Z,57.60
2022-11-15T11:04:02.444Z,59.10
2022-11-15T11:06:31.241Z,55.00
2022-11-15T11:09:01.853Z,48.60
2022-11-15T11:11:56.091Z,51.80
2022-11-15T11:14:35.524Z,52.40
2022-11-15T11:17:22.092Z,46.40
2022-11-15T11:19:56.063Z,52.90
2022-11-15T11:22:43.070Z,51.50
2022-11-15T11:25:42.694Z,48.40
2022-11-15T11:28:26.243Z,53.40
2022-11-15T11:31:19.272Z,55.10
2022-11-15T11:34:14.967Z,54.70
2022-11-15T11:36:51.772Z,53.30
2022-11-15T11:39:30.209Z,52.10
2022-11-15T11:42:11.676Z,48.50
2022-11-15T11:44:58.221Z,49.40
2022-11-15T11:47:34.711Z,53.30
2022-11-15T11:50:16.527Z,50.20
2022-11-15T11:53:13.093Z,51.60
2022-11-15T11:55:54.061Z,50.20
2022-11-15T11:58:36.995Z,46.90
2022-11-15T12:01:36.589Z,85.70
2022-11-15T12:04:17.921Z,85.70
2022-11-15T12:06:54.603Z,77.70
2022-11-15T12:09:37.192Z,67.40
2022-11-15T12:12:13.045Z,79.80
2022-11-15T12:15:15.026Z,93.00
2022-11-15T12:17:43.467Z,74.40
2022-11-15T12:20:19.960Z,59.50
2022-11-15T12:23:15.400Z,49.70
2022-11-15T12:26:11.091Z,68.10
2022-11-15T12:29:09.134Z,71.50
2022-11-15T12:31:40.978Z,71.00
2022-11-15T12:34:42.994Z,62.90
2022-11-15T12:37:33.379Z,59.90
2022-11-15T12:40:22.269Z,59.00
2022-11-15T12:43:23.172Z,54.90
2022-11-15T12:46:02.653Z,63.20
2022-11-15T12:48:37.040Z,48.60
2022-11-15T12:51:05.241Z,56.40
2022-11-15T12:53:34.965Z,53.10
2022-11-15T12:56:05.584Z,83.10
2022-11-15T12:59:06.187Z,150.00
2022-11-15T13:01:34.330Z,120.10
2022-11-15T13:04:20.951Z,82.60
2022-11-15T13:06:52.194Z,70.30
2022-11-15T13:09:38.637Z,106.50
2022-11-15T13:12:26.323Z,85.10
2022-11-15T13:15:22.790Z,116.40
2022-11-15T13:17:51.635Z,62.00
2022-11-15T13:20:27.510Z,67.00
2022-11-15T13:23:04.055Z,72.00
2022-11-15T13:25:40.552Z,70.60
2022-11-15T13:28:15.833Z,89.70
2022-11-15T13:31:01.394Z,82.90
2022-11-15T13:33:36.218Z,92.30
2022-11-15T13:36:17.623Z,69.70
2022-11-15T13:38:45.688Z,56.70
2022-11-15T13:41:22.093Z,48.40
2022-11-15T13:43:51.940Z,54.00
2022-11-15T13:46:35.434Z,47.50
2022-11-15T13:49:12.340Z,51.50
2022-11-15T13:51:42.670Z,55.10
2022-11-15T13:54:13.086Z,72.40
2022-11-15T13:57:12.668Z,61.80
2022-11-15T14:00:10.605Z,49.10
2022-11-15T14:02:38.438Z,51.30
2022-11-15T14:05:26.421Z,52.00
2022-11-15T14:07:59.798Z,60.30
2022-11-15T14:10:34.056Z,60.30
2022-11-15T14:13:03.552Z,57.20
2022-11-15T14:15:34.944Z,49.20
2022-11-15T14:18:03.889Z,42.20
2022-11-15T14:20:39.348Z,41.40
2022-11-15T14:23:25.714Z,44.10
2022-11-15T14:25:58.031Z,54.90
2022-11-15T14:28:25.572Z,44.00
2022-11-15T14:30:56.998Z,44.50
2022-11-15T14:33:41.045Z,41.30
2022-11-15T14:36:13.688Z,42.60
2022-11-15T14:38:43.727Z,40.10
2022-11-15T14:41:17.457Z,35.40
2022-11-15T14:43:45.004Z,36.20
2022-11-15T14:46:12.666Z,37.00
2022-11-15T14:48:40.297Z,36.60
2022-11-15T14:51:14.254Z,37.40
2022-11-15T14:53:44.562Z,36.80
2022-11-15T14:56:13.075Z,38.60
2022-11-15T14:58:40.902Z,33.90
2022-11-15T15:01:26.701Z,43.30
2022-11-15T15:03:59.159Z,51.00
2022-11-15T15:06:27.312Z,51.70
2022-11-15T15:08:54.955Z,49.10
2022-11-15T15:11:25.112Z,33.80
2022-11-15T15:13:53.578Z,35.40
2022-11-15T15:16:21.159Z,36.90
2022-11-15T15:18:49.091Z,34.80
2022-11-15T15:21:25.622Z,35.40
2022-11-15T15:23:55.105Z,35.60
2022-11-15T15:26:24.260Z,32.60
2022-11-15T15:28:52.838Z,32.70
2022-11-15T15:31:20.532Z,63.70
2022-11-15T15:33:48.156Z,35.80
2022-11-15T15:36:19.287Z,34.00
2022-11-15T15:38:47.931Z,28.70
2022-11-15T15:41:17.619Z,34.00
2022-11-15T15:43:46.119Z,1325.90
2022-11-15T15:46:19.344Z,743.80
2022-11-15T15:48:47.224Z,1999.90
2022-11-15T15:51:20.198Z,1581.30
2022-11-15T15:53:49.247Z,782.20
2022-11-15T15:56:16.942Z,78.20
2022-11-15T15:58:44.529Z,41.10
2022-11-15T16:01:12.206Z,32.40
2022-11-15T16:03:39.914Z,29.90
2022-11-15T16:06:46.066Z,134.60
2022-11-15T16:09:19.304Z,178.50
2022-11-15T16:11:48.095Z,379.70
2022-11-15T16:14:15.832Z,176.30
2022-11-15T16:16:43.431Z,609.20
2022-11-15T16:19:12.728Z,507.30
2022-11-15T16:21:40.318Z,81.40
2022-11-15T16:24:08.110Z,33.10
2022-11-15T16:26:36.763Z,34.60
2022-11-15T16:29:04.438Z,30.50
2022-11-15T16:31:32.067Z,29.00
2022-11-15T16:33:59.645Z,142.90
2022-11-15T16:36:30.889Z,692.50
2022-11-15T16:39:00.250Z,719.00
2022-11-15T16:41:27.921Z,852.50
2022-11-15T16:43:55.667Z,290.10
2022-11-15T16:46:26.205Z,68.40
2022-11-15T16:48:54.456Z,41.60
2022-11-15T16:51:23.250Z,38.20
2022-11-15T16:53:50.994Z,36.90
2022-11-15T16:56:27.010Z,47.00
2022-11-15T16:58:58.480Z,34.50
2022-11-15T17:01:35.546Z,38.00
2022-11-15T17:04:20.086Z,32.20
2022-11-15T17:06:48.680Z,31.60
2022-11-15T17:09:25.301Z,27.00
2022-11-15T17:11:53.729Z,25.00
2022-11-15T17:14:21.714Z,31.20
2022-11-15T17:16:49.537Z,26.90
2022-11-15T17:19:21.400Z,24.40
2022-11-15T17:21:49.790Z,29.40
2022-11-15T17:24:17.711Z,494.20
2022-11-15T17:26:45.373Z,1999.90
2022-11-15T17:29:13.027Z,1018.30
2022-11-15T17:31:40.820Z,429.80
2022-11-15T17:34:08.701Z,128.80
2022-11-15T17:36:36.471Z,35.90
2022-11-15T17:39:04.891Z,23.30
2022-11-15T17:41:32.653Z,20.90
2022-11-15T17:44:01.890Z,23.20
2022-11-15T17:46:30.125Z,28.70
2022-11-15T17:48:58.123Z,30.50
2022-11-15T17:51:26.062Z,22.70
2022-11-15T17:53:55.467Z,29.00
2022-11-15T17:56:25.617Z,23.30
2022-11-15T17:58:55.867Z,27.20
2022-11-15T18:01:40.737Z,25.00
2022-11-15T18:04:10.639Z,21.40
2022-11-15T18:06:38.570Z,22.10
2022-11-15T18:09:07.356Z,23.30
2022-11-15T18:11:41.483Z,29.40
2022-11-15T18:14:13.907Z,44.20
2022-11-15T18:16:42.135Z,22.70
2022-11-15T18:19:13.960Z,21.10
2022-11-15T18:21:56.589Z,21.50
2022-11-15T18:24:30.283Z,22.40
2022-11-15T18:27:00.240Z,26.80
2022-11-15T18:29:28.320Z,41.40
2022-11-15T18:31:56.264Z,25.70
2022-11-15T18:34:26.875Z,26.60
2022-11-15T18:36:54.792Z,23.80
2022-11-15T18:39:22.487Z,22.20
2022-11-15T18:41:50.339Z,20.60
2022-11-15T18:44:18.782Z,22.00
2022-11-15T18:46:46.854Z,22.60
2022-11-15T18:49:16.814Z,23.10
2022-11-15T18:51:44.641Z,24.20
2022-11-15T18:54:14.518Z,22.20
2022-11-15T18:56:47.158Z,22.20
2022-11-15T18:59:16.307Z,23.30
2022-11-15T19:01:50.011Z,38.00
2022-11-15T19:04:20.734Z,25.20
2022-11-15T19:06:50.301Z,24.80
2022-11-15T19:09:19.494Z,25.00
2022-11-15T19:11:48.938Z,24.60
2022-11-15T19:14:17.956Z,21.50
2022-11-15T19:16:52.321Z,25.60
2022-11-15T19:19:25.335Z,22.60
2022-11-15T19:21:53.138Z,26.00
2022-11-15T19:24:21.098Z,23.40
2022-11-15T19:26:48.848Z,21.80
2022-11-15T19:29:18.239Z,21.80
2022-11-15T19:31:48.572Z,24.00
2022-11-15T19:34:16.596Z,25.00
2022-11-15T19:36:45.178Z,27.60
2022-11-15T19:39:14.724Z,26.10
2022-11-15T19:41:48.220Z,23.90
2022-11-15T19:44:15.974Z,24.50
2022-11-15T19:46:44.410Z,32.60
2022-11-15T19:49:12.400Z,33.50
2022-11-15T19:51:42.674Z,23.70
2022-11-15T19:54:11.017Z,23.30
2022-11-15T19:56:39.946Z,23.90
2022-11-15T19:59:08.918Z,37.00
2022-11-15T20:01:39.048Z,33.70
2022-11-15T20:04:09.723Z,39.30
2022-11-15T20:06:40.916Z,91.50
2022-11-15T20:09:13.338Z,29.80
2022-11-15T20:11:41.534Z,70.20
2022-11-15T20:14:11.529Z,29.50
2022-11-15T20:16:39.574Z,26.40
2022-11-15T20:19:08.676Z,36.30
2022-11-15T20:21:36.336Z,27.00
2022-11-15T20:24:05.763Z,26.00
2022-11-15T20:26:33.435Z,28.50
2022-11-15T20:29:03.822Z,29.90
2022-11-15T20:31:32.887Z,30.90
2022-11-15T20:34:00.520Z,30.10
2022-11-15T20:36:29.672Z,28.40
2022-11-15T20:38:59.306Z,26.40
2022-11-15T20:41:28.214Z,28.20
2022-11-15T20:43:56.258Z,27.60
2022-11-15T20:46:23.929Z,32.50
2022-11-15T20:48:51.604Z,29.20
2022-11-15T20:51:19.907Z,27.80
2022-11-15T20:53:48.718Z,28.00
2022-11-15T20:56:19.058Z,34.60
2022-11-15T20:58:50.629Z,51.00
2022-11-15T21:01:23.829Z,69.90
2022-11-15T21:03:53.907Z,34.10
2022-11-15T21:06:23.160Z,36.00
2022-11-15T21:09:08.080Z,28.60
2022-11-15T21:11:52.406Z,45.30
2022-11-15T21:14:20.226Z,29.40
2022-11-15T21:16:48.438Z,28.90
2022-11-15T21:19:16.041Z,27.00
2022-11-15T21:21:43.630Z,28.60
2022-11-15T21:24:11.408Z,27.10
2022-11-15T21:26:39.039Z,25.30
2022-11-15T21:29:06.729Z,29.70
2022-11-15T21:31:34.444Z,24.70
2022-11-15T21:34:02.998Z,27.20
2022-11-15T21:36:31.150Z,27.90
2022-11-15T21:38:58.745Z,30.60
2022-11-15T21:41:26.373Z,26.20
2022-11-15T21:43:58.305Z,26.90
2022-11-15T21:46:26.663Z,31.00
2022-11-15T21:48:54.270Z,28.30
2022-11-15T21:51:22.473Z,28.30
2022-11-15T21:53:53.838Z,25.10
2022-11-15T21:56:21.515Z,29.60
2022-11-15T21:58:49.609Z,29.20
2022-11-15T22:01:33.273Z,29.90
2022-11-15T22:04:01.003Z,30.10
2022-11-15T22:06:28.963Z,32.20
2022-11-15T22:08:56.666Z,29.90
2022-11-15T22:11:24.465Z,30.60
2022-11-15T22:13:52.160Z,32.80
2022-11-15T22:16:19.924Z,30.60
2022-11-15T22:18:47.628Z,31.80
2022-11-15T22:21:17.860Z,32.60
2022-11-15T22:23:46.051Z,30.00
2022-11-15T22:26:20.668Z,33.40
2022-11-15T22:28:50.961Z,27.30
2022-11-15T22:31:18.714Z,27.00
2022-11-15T22:33:46.394Z,31.20
2022-11-15T22:36:14.177Z,25.60
2022-11-15T22:38:41.941Z,29.10
2022-11-15T22:41:09.685Z,28.10
2022-11-15T22:43:37.774Z,30.70
2022-11-15T22:46:06.076Z,30.00
2022-11-15T22:48:36.557Z,28.70
2022-11-15T22:51:06.020Z,29.20
2022-11-15T22:53:33.919Z,25.90
2022-11-15T22:56:05.410Z,32.00
2022-11-15T22:58:34.434Z,29.90
2022-11-15T23:01:04.799Z,32.70
2022-11-15T23:03:33.870Z,28.90
2022-11-15T23:06:04.462Z,28.40
2022-11-15T23:08:32.874Z,30.80
2022-11-15T23:11:17.759Z,30.80
2022-11-15T23:13:45.493Z,29.30
2022-11-15T23:16:29.154Z,26.80
2022-11-15T23:18:58.876Z,30.10
2022-11-15T23:21:49.554Z,27.80
2022-11-15T23:24:18.245Z,28.50
2022-11-15T23:26:48.281Z,29.40
2022-11-15T23:29:17.960Z,29.70
2022-11-15T23:32:02.869Z,31.10
2022-11-15T23:34:32.415Z,31.80
2022-11-15T23:37:00.176Z,38.90
2022-11-15T23:39:28.063Z,33.20
2022-11-15T23:41:56.079Z,29.70
2022-11-15T23:44:24.352Z,30.90
2022-11-15T23:46:53.549Z,28.10
2022-11-15T23:49:21.950Z,28.80
2022-11-15T23:51:49.700Z,28.80
2022-11-15T23:54:17.463Z,27.90
2022-11-15T23:56:45.239Z,25.50
2022-11-15T23:59:12.977Z,23.70
